sensor_id;sensor_type;location;lat;lon;timestamp;temperature;humidity
27128;DHT22;14660;49.008;8.390;2022-12-07T00:01:38;7.10;99.90
27128;DHT22;14660;49.008;8.390;2022-12-07T00:04:09;7.10;99.90
27128;DHT22;14660;49.008;8.390;2022-12-07T00:06:54;7.10;99.90
27128;DHT22;14660;49.008;8.390;2022-12-07T00:09:20;7.10;99.90
27128;DHT22;14660;49.008;8.390;2022-12-07T00:11:49;7.10;99.90
27128;DHT22;14660;49.008;8.390;2022-12-07T00:14:15;7.10;99.90
27128;DHT22;14660;49.008;8.390;2022-12-07T00:16:42;7.10;99.90
27128;DHT22;14660;49.008;8.390;2022-12-07T00:19:09;7.10;99.90
27128;DHT22;14660;49.008;8.390;2022-12-07T00:21:37;7.10;99.90
27128;DHT22;14660;49.008;8.390;2022-12-07T00:24:04;7.00;99.90
27128;DHT22;14660;49.008;8.390;2022-12-07T00:26:35;7.10;99.90
27128;DHT22;14660;49.008;8.390;2022-12-07T00:29:04;7.10;99.90
27128;DHT22;14660;49.008;8.390;2022-12-07T00:31:36;7.10;99.90
27128;DHT22;14660;49.008;8.390;2022-12-07T00:34:05;7.10;99.90
27128;DHT22;14660;49.008;8.390;2022-12-07T00:36:31;7.00;99.90
27128;DHT22;14660;49.008;8.390;2022-12-07T00:39:00;7.00;99.90
27128;DHT22;14660;49.008;8.390;2022-12-07T00:41:28;7.00;99.90
27128;DHT22;14660;49.008;8.390;2022-12-07T00:43:54;6.90;99.90
27128;DHT22;14660;49.008;8.390;2022-12-07T00:46:21;6.90;99.90
27128;DHT22;14660;49.008;8.390;2022-12-07T00:48:48;7.00;99.90
27128;DHT22;14660;49.008;8.390;2022-12-07T00:51:15;7.00;99.90
27128;DHT22;14660;49.008;8.390;2022-12-07T00:53:42;7.00;99.90
27128;DHT22;14660;49.008;8.390;2022-12-07T00:56:10;7.00;99.90
27128;DHT22;14660;49.008;8.390;2022-12-07T00:58:36;7.00;99.90
27128;DHT22;14660;49.008;8.390;2022-12-07T01:01:05;7.00;99.90
27128;DHT22;14660;49.008;8.390;2022-12-07T01:03:32;6.90;99.90
27128;DHT22;14660;49.008;8.390;2022-12-07T01:05:59;6.90;99.90
27128;DHT22;14660;49.008;8.390;2022-12-07T01:08:26;6.90;99.90
27128;DHT22;14660;49.008;8.390;2022-12-07T01:11:20;6.80;99.90
27128;DHT22;14660;49.008;8.390;2022-12-07T01:13:46;6.70;99.90
27128;DHT22;14660;49.008;8.390;2022-12-07T01:16:14;6.80;99.90
27128;DHT22;14660;49.008;8.390;2022-12-07T01:18:41;6.80;99.90
27128;DHT22;14660;49.008;8.390;2022-12-07T01:21:14;6.90;99.90
27128;DHT22;14660;49.008;8.390;2022-12-07T01:23:42;6.80;99.90
27128;DHT22;14660;49.008;8.390;2022-12-07T01:26:12;6.90;99.90
27128;DHT22;14660;49.008;8.390;2022-12-07T01:28:39;6.90;99.90
27128;DHT22;14660;49.008;8.390;2022-12-07T01:31:09;6.90;99.90
27128;DHT22;14660;49.008;8.390;2022-12-07T01:33:38;6.80;99.90
27128;DHT22;14660;49.008;8.390;2022-12-07T01:36:08;6.80;99.90
27128;DHT22;14660;49.008;8.390;2022-12-07T01:38:34;6.70;99.90
27128;DHT22;14660;49.008;8.390;2022-12-07T01:41:01;6.80;99.90
27128;DHT22;14660;49.008;8.390;2022-12-07T01:43:29;6.80;99.90
27128;DHT22;14660;49.008;8.390;2022-12-07T01:45:55;6.80;99.90
27128;DHT22;14660;49.008;8.390;2022-12-07T01:48:26;6.70;99.90
27128;DHT22;14660;49.008;8.390;2022-12-07T01:50:54;6.70;99.90
27128;DHT22;14660;49.008;8.390;2022-12-07T01:53:25;6.70;99.90
27128;DHT22;14660;49.008;8.390;2022-12-07T01:55:52;6.70;99.90
27128;DHT22;14660;49.008;8.390;2022-12-07T01:58:20;6.50;99.90
27128;DHT22;14660;49.008;8.390;2022-12-07T02:00:46;6.50;99.90
27128;DHT22;14660;49.008;8.390;2022-12-07T02:03:22;6.60;99.90
27128;DHT22;14660;49.008;8.390;2022-12-07T02:05:50;6.60;99.90
27128;DHT22;14660;49.008;8.390;2022-12-07T02:08:17;6.60;99.90
27128;DHT22;14660;49.008;8.390;2022-12-07T02:10:44;6.60;99.90
27128;DHT22;14660;49.008;8.390;2022-12-07T02:13:17;6.60;99.90
27128;DHT22;14660;49.008;8.390;2022-12-07T02:24:01;6.60;99.90
27128;DHT22;14660;49.008;8.390;2022-12-07T02:29:43;6.60;99.90
27128;DHT22;14660;49.008;8.390;2022-12-07T02:35:20;6.60;99.90
27128;DHT22;14660;49.008;8.390;2022-12-07T02:38:08;6.60;99.90
27128;DHT22;14660;49.008;8.390;2022-12-07T02:41:02;6.60;99.90
27128;DHT22;14660;49.008;8.390;2022-12-07T02:43:46;6.60;99.90
27128;DHT22;14660;49.008;8.390;2022-12-07T02:46:19;6.60;99.90
27128;DHT22;14660;49.008;8.390;2022-12-07T02:48:46;6.60;99.90
27128;DHT22;14660;49.008;8.390;2022-12-07T02:51:12;6.70;99.90
27128;DHT22;14660;49.008;8.390;2022-12-07T02:53:57;6.60;99.90
27128;DHT22;14660;49.008;8.390;2022-12-07T02:56:46;6.60;99.90
27128;DHT22;14660;49.008;8.390;2022-12-07T03:11:29;6.70;99.90
27128;DHT22;14660;49.008;8.390;2022-12-07T03:16:20;6.70;99.90
27128;DHT22;14660;49.008;8.390;2022-12-07T03:19:01;6.70;99.90
27128;DHT22;14660;49.008;8.390;2022-12-07T03:21:32;6.60;99.90
27128;DHT22;14660;49.008;8.390;2022-12-07T03:24:02;6.60;99.90
27128;DHT22;14660;49.008;8.390;2022-12-07T03:26:36;6.60;99.90
27128;DHT22;14660;49.008;8.390;2022-12-07T03:29:31;6.70;99.90
27128;DHT22;14660;49.008;8.390;2022-12-07T03:32:09;6.60;99.90
27128;DHT22;14660;49.008;8.390;2022-12-07T03:34:47;6.50;99.90
27128;DHT22;14660;49.008;8.390;2022-12-07T03:37:23;6.40;99.90
27128;DHT22;14660;49.008;8.390;2022-12-07T03:42:32;6.40;99.90
27128;DHT22;14660;49.008;8.390;2022-12-07T03:44:59;6.40;99.90
27128;DHT22;14660;49.008;8.390;2022-12-07T03:47:52;6.40;99.90
27128;DHT22;14660;49.008;8.390;2022-12-07T03:50:48;6.30;99.90
27128;DHT22;14660;49.008;8.390;2022-12-07T03:53:24;6.30;99.90
27128;DHT22;14660;49.008;8.390;2022-12-07T03:55:54;6.20;99.90
27128;DHT22;14660;49.008;8.390;2022-12-07T03:58:23;6.20;99.90
27128;DHT22;14660;49.008;8.390;2022-12-07T04:00:50;6.30;99.90
27128;DHT22;14660;49.008;8.390;2022-12-07T04:03:16;6.30;99.90
27128;DHT22;14660;49.008;8.390;2022-12-07T04:05:42;6.20;99.90
27128;DHT22;14660;49.008;8.390;2022-12-07T04:08:08;6.30;99.90
27128;DHT22;14660;49.008;8.390;2022-12-07T04:10:34;6.30;99.90
27128;DHT22;14660;49.008;8.390;2022-12-07T04:12:59;6.30;99.90
27128;DHT22;14660;49.008;8.390;2022-12-07T04:15:25;6.30;99.90
27128;DHT22;14660;49.008;8.390;2022-12-07T04:17:52;6.30;99.90
27128;DHT22;14660;49.008;8.390;2022-12-07T04:20:18;6.30;99.90
27128;DHT22;14660;49.008;8.390;2022-12-07T04:22:43;6.30;99.90
27128;DHT22;14660;49.008;8.390;2022-12-07T04:25:09;6.30;99.90
27128;DHT22;14660;49.008;8.390;2022-12-07T04:27:34;6.30;99.90
27128;DHT22;14660;49.008;8.390;2022-12-07T04:30:00;6.30;99.90
27128;DHT22;14660;49.008;8.390;2022-12-07T04:32:26;6.40;99.90
27128;DHT22;14660;49.008;8.390;2022-12-07T04:34:51;6.40;99.90
27128;DHT22;14660;49.008;8.390;2022-12-07T04:37:17;6.40;99.90
27128;DHT22;14660;49.008;8.390;2022-12-07T04:39:43;6.30;99.90
27128;DHT22;14660;49.008;8.390;2022-12-07T04:42:11;6.30;99.90
27128;DHT22;14660;49.008;8.390;2022-12-07T04:44:38;6.30;99.90
27128;DHT22;14660;49.008;8.390;2022-12-07T04:47:03;6.30;99.90
27128;DHT22;14660;49.008;8.390;2022-12-07T04:49:29;6.30;99.90
27128;DHT22;14660;49.008;8.390;2022-12-07T04:51:55;6.40;99.90
27128;DHT22;14660;49.008;8.390;2022-12-07T04:54:20;6.40;99.90
27128;DHT22;14660;49.008;8.390;2022-12-07T04:56:46;6.30;99.90
27128;DHT22;14660;49.008;8.390;2022-12-07T04:59:14;6.40;99.90
27128;DHT22;14660;49.008;8.390;2022-12-07T05:01:41;6.40;99.90
27128;DHT22;14660;49.008;8.390;2022-12-07T05:04:07;6.40;99.90
27128;DHT22;14660;49.008;8.390;2022-12-07T05:06:33;6.40;99.90
27128;DHT22;14660;49.008;8.390;2022-12-07T05:08:59;6.40;99.90
27128;DHT22;14660;49.008;8.390;2022-12-07T05:11:25;6.50;99.90
27128;DHT22;14660;49.008;8.390;2022-12-07T05:14:13;6.40;99.90
27128;DHT22;14660;49.008;8.390;2022-12-07T05:16:40;6.50;99.90
27128;DHT22;14660;49.008;8.390;2022-12-07T05:19:06;6.40;99.90
27128;DHT22;14660;49.008;8.390;2022-12-07T05:21:34;6.40;99.90
27128;DHT22;14660;49.008;8.390;2022-12-07T05:24:01;6.40;99.90
27128;DHT22;14660;49.008;8.390;2022-12-07T05:26:28;6.40;99.90
27128;DHT22;14660;49.008;8.390;2022-12-07T05:28:55;6.40;99.90
27128;DHT22;14660;49.008;8.390;2022-12-07T05:31:23;6.40;99.90
27128;DHT22;14660;49.008;8.390;2022-12-07T05:33:51;6.30;99.90
27128;DHT22;14660;49.008;8.390;2022-12-07T05:36:16;6.30;99.90
27128;DHT22;14660;49.008;8.390;2022-12-07T05:38:42;6.30;99.90
27128;DHT22;14660;49.008;8.390;2022-12-07T05:41:13;6.40;99.90
27128;DHT22;14660;49.008;8.390;2022-12-07T05:43:59;6.40;99.90
27128;DHT22;14660;49.008;8.390;2022-12-07T05:46:25;6.40;99.90
27128;DHT22;14660;49.008;8.390;2022-12-07T05:48:51;6.40;99.90
27128;DHT22;14660;49.008;8.390;2022-12-07T05:51:16;6.50;99.90
27128;DHT22;14660;49.008;8.390;2022-12-07T05:53:42;6.30;99.90
27128;DHT22;14660;49.008;8.390;2022-12-07T05:56:08;6.30;99.90
27128;DHT22;14660;49.008;8.390;2022-12-07T05:58:33;6.30;99.90
27128;DHT22;14660;49.008;8.390;2022-12-07T06:01:17;6.40;99.90
27128;DHT22;14660;49.008;8.390;2022-12-07T06:03:44;6.40;99.90
27128;DHT22;14660;49.008;8.390;2022-12-07T06:06:11;6.40;99.90
27128;DHT22;14660;49.008;8.390;2022-12-07T06:08:38;6.40;99.90
27128;DHT22;14660;49.008;8.390;2022-12-07T06:11:05;6.40;99.90
27128;DHT22;14660;49.008;8.390;2022-12-07T06:13:49;6.30;99.90
27128;DHT22;14660;49.008;8.390;2022-12-07T06:16:14;6.40;99.90
27128;DHT22;14660;49.008;8.390;2022-12-07T06:18:41;6.40;99.90
27128;DHT22;14660;49.008;8.390;2022-12-07T06:21:07;6.40;99.90
27128;DHT22;14660;49.008;8.390;2022-12-07T06:23:33;6.30;99.90
27128;DHT22;14660;49.008;8.390;2022-12-07T06:25:59;6.40;99.90
27128;DHT22;14660;49.008;8.390;2022-12-07T06:28:25;6.50;99.90
27128;DHT22;14660;49.008;8.390;2022-12-07T06:31:01;6.40;99.90
27128;DHT22;14660;49.008;8.390;2022-12-07T06:33:28;6.40;99.90
27128;DHT22;14660;49.008;8.390;2022-12-07T06:35:54;6.40;99.90
27128;DHT22;14660;49.008;8.390;2022-12-07T06:38:20;6.40;99.90
27128;DHT22;14660;49.008;8.390;2022-12-07T06:40:47;6.40;99.90
27128;DHT22;14660;49.008;8.390;2022-12-07T06:43:13;6.40;99.90
27128;DHT22;14660;49.008;8.390;2022-12-07T06:45:40;6.30;99.90
27128;DHT22;14660;49.008;8.390;2022-12-07T06:48:06;6.30;99.90
27128;DHT22;14660;49.008;8.390;2022-12-07T06:50:31;6.30;99.90
27128;DHT22;14660;49.008;8.390;2022-12-07T06:52:57;6.30;99.90
27128;DHT22;14660;49.008;8.390;2022-12-07T06:55:24;6.40;99.90
27128;DHT22;14660;49.008;8.390;2022-12-07T06:57:49;6.30;99.90
27128;DHT22;14660;49.008;8.390;2022-12-07T07:00:16;6.30;99.90
27128;DHT22;14660;49.008;8.390;2022-12-07T07:02:42;6.20;99.90
27128;DHT22;14660;49.008;8.390;2022-12-07T07:05:09;6.20;99.90
27128;DHT22;14660;49.008;8.390;2022-12-07T07:07:35;6.30;99.90
27128;DHT22;14660;49.008;8.390;2022-12-07T07:10:00;6.20;99.90
27128;DHT22;14660;49.008;8.390;2022-12-07T07:12:26;6.30;99.90
27128;DHT22;14660;49.008;8.390;2022-12-07T07:14:51;6.30;99.90
27128;DHT22;14660;49.008;8.390;2022-12-07T07:17:17;6.30;99.90
27128;DHT22;14660;49.008;8.390;2022-12-07T07:19:43;6.30;99.90
27128;DHT22;14660;49.008;8.390;2022-12-07T07:22:09;6.20;99.90
27128;DHT22;14660;49.008;8.390;2022-12-07T07:24:35;6.30;99.90
27128;DHT22;14660;49.008;8.390;2022-12-07T07:27:01;6.30;99.90
27128;DHT22;14660;49.008;8.390;2022-12-07T07:29:26;6.30;99.90
27128;DHT22;14660;49.008;8.390;2022-12-07T07:31:52;6.30;99.90
27128;DHT22;14660;49.008;8.390;2022-12-07T07:34:17;6.30;99.90
27128;DHT22;14660;49.008;8.390;2022-12-07T07:36:43;6.30;99.90
27128;DHT22;14660;49.008;8.390;2022-12-07T07:39:10;6.30;99.90
27128;DHT22;14660;49.008;8.390;2022-12-07T07:41:38;6.30;99.90
27128;DHT22;14660;49.008;8.390;2022-12-07T07:44:04;6.30;99.90
27128;DHT22;14660;49.008;8.390;2022-12-07T07:46:30;6.30;99.90
27128;DHT22;14660;49.008;8.390;2022-12-07T07:48:56;6.40;99.90
27128;DHT22;14660;49.008;8.390;2022-12-07T07:51:22;6.40;99.90
27128;DHT22;14660;49.008;8.390;2022-12-07T07:53:47;6.40;99.90
27128;DHT22;14660;49.008;8.390;2022-12-07T07:56:14;6.40;99.90
27128;DHT22;14660;49.008;8.390;2022-12-07T07:58:41;6.30;99.90
27128;DHT22;14660;49.008;8.390;2022-12-07T08:01:06;6.40;99.90
27128;DHT22;14660;49.008;8.390;2022-12-07T08:03:32;6.40;99.90
27128;DHT22;14660;49.008;8.390;2022-12-07T08:05:59;6.40;99.90
27128;DHT22;14660;49.008;8.390;2022-12-07T08:08:25;6.40;99.90
27128;DHT22;14660;49.008;8.390;2022-12-07T08:10:51;6.30;99.90
27128;DHT22;14660;49.008;8.390;2022-12-07T08:13:16;6.40;99.90
27128;DHT22;14660;49.008;8.390;2022-12-07T08:15:47;6.30;99.90
27128;DHT22;14660;49.008;8.390;2022-12-07T08:18:14;6.30;99.90
27128;DHT22;14660;49.008;8.390;2022-12-07T08:20:42;6.40;99.90
27128;DHT22;14660;49.008;8.390;2022-12-07T08:23:09;6.40;99.90
27128;DHT22;14660;49.008;8.390;2022-12-07T08:25:37;6.40;99.90
27128;DHT22;14660;49.008;8.390;2022-12-07T08:28:04;6.40;99.90
27128;DHT22;14660;49.008;8.390;2022-12-07T08:30:31;6.40;99.90
27128;DHT22;14660;49.008;8.390;2022-12-07T08:32:59;6.40;99.90
27128;DHT22;14660;49.008;8.390;2022-12-07T08:35:25;6.40;99.90
27128;DHT22;14660;49.008;8.390;2022-12-07T08:37:52;6.40;99.90
27128;DHT22;14660;49.008;8.390;2022-12-07T08:40:19;6.50;99.90
27128;DHT22;14660;49.008;8.390;2022-12-07T08:42:51;6.50;99.90
27128;DHT22;14660;49.008;8.390;2022-12-07T08:45:19;6.60;99.90
27128;DHT22;14660;49.008;8.390;2022-12-07T08:48:00;6.50;99.90
27128;DHT22;14660;49.008;8.390;2022-12-07T08:50:29;6.50;99.90
27128;DHT22;14660;49.008;8.390;2022-12-07T08:52:58;6.50;99.90
27128;DHT22;14660;49.008;8.390;2022-12-07T08:55:27;6.50;99.90
27128;DHT22;14660;49.008;8.390;2022-12-07T08:57:55;6.50;99.90
27128;DHT22;14660;49.008;8.390;2022-12-07T09:00:25;6.50;99.90
27128;DHT22;14660;49.008;8.390;2022-12-07T09:02:54;6.50;99.90
27128;DHT22;14660;49.008;8.390;2022-12-07T09:05:21;6.40;99.90
27128;DHT22;14660;49.008;8.390;2022-12-07T09:07:51;6.50;99.90
27128;DHT22;14660;49.008;8.390;2022-12-07T09:10:21;6.50;99.90
27128;DHT22;14660;49.008;8.390;2022-12-07T09:12:48;6.60;99.90
27128;DHT22;14660;49.008;8.390;2022-12-07T09:15:13;6.60;99.90
27128;DHT22;14660;49.008;8.390;2022-12-07T09:17:40;6.60;99.90
27128;DHT22;14660;49.008;8.390;2022-12-07T09:20:06;6.70;99.90
27128;DHT22;14660;49.008;8.390;2022-12-07T09:22:33;6.80;99.90
27128;DHT22;14660;49.008;8.390;2022-12-07T09:24:59;6.80;99.90
27128;DHT22;14660;49.008;8.390;2022-12-07T09:27:27;6.80;99.90
27128;DHT22;14660;49.008;8.390;2022-12-07T09:29:52;6.90;99.90
27128;DHT22;14660;49.008;8.390;2022-12-07T09:32:19;6.80;99.90
27128;DHT22;14660;49.008;8.390;2022-12-07T09:34:45;6.80;99.90
27128;DHT22;14660;49.008;8.390;2022-12-07T09:37:12;6.80;99.90
27128;DHT22;14660;49.008;8.390;2022-12-07T09:39:38;6.80;99.90
27128;DHT22;14660;49.008;8.390;2022-12-07T09:42:06;6.80;99.90
27128;DHT22;14660;49.008;8.390;2022-12-07T09:44:35;6.90;99.90
27128;DHT22;14660;49.008;8.390;2022-12-07T09:47:01;6.90;99.90
27128;DHT22;14660;49.008;8.390;2022-12-07T09:49:30;7.00;99.90
27128;DHT22;14660;49.008;8.390;2022-12-07T09:52:03;7.00;99.90
27128;DHT22;14660;49.008;8.390;2022-12-07T09:54:43;6.90;99.90
27128;DHT22;14660;49.008;8.390;2022-12-07T09:57:12;7.00;99.90
27128;DHT22;14660;49.008;8.390;2022-12-07T09:59:38;7.00;99.90
27128;DHT22;14660;49.008;8.390;2022-12-07T10:02:28;7.10;99.90
27128;DHT22;14660;49.008;8.390;2022-12-07T10:04:59;7.10;99.90
27128;DHT22;14660;49.008;8.390;2022-12-07T10:07:26;7.10;99.90
27128;DHT22;14660;49.008;8.390;2022-12-07T10:09:52;7.20;99.90
27128;DHT22;14660;49.008;8.390;2022-12-07T10:12:19;7.30;99.90
27128;DHT22;14660;49.008;8.390;2022-12-07T10:14:57;7.20;99.90
27128;DHT22;14660;49.008;8.390;2022-12-07T10:20:22;7.30;99.90
27128;DHT22;14660;49.008;8.390;2022-12-07T10:23:08;7.20;99.90
27128;DHT22;14660;49.008;8.390;2022-12-07T10:25:40;7.20;99.90
27128;DHT22;14660;49.008;8.390;2022-12-07T10:33:38;7.30;99.90
27128;DHT22;14660;49.008;8.390;2022-12-07T10:36:26;7.20;99.90
27128;DHT22;14660;49.008;8.390;2022-12-07T10:42:02;7.20;99.90
27128;DHT22;14660;49.008;8.390;2022-12-07T10:44:31;7.20;99.90
27128;DHT22;14660;49.008;8.390;2022-12-07T10:58:23;7.10;99.90
27128;DHT22;14660;49.008;8.390;2022-12-07T11:01:19;7.10;99.90
27128;DHT22;14660;49.008;8.390;2022-12-07T11:10:10;7.10;99.90
27128;DHT22;14660;49.008;8.390;2022-12-07T11:24:20;7.10;99.90
27128;DHT22;14660;49.008;8.390;2022-12-07T11:26:59;7.20;99.90
27128;DHT22;14660;49.008;8.390;2022-12-07T11:29:55;7.30;99.90
27128;DHT22;14660;49.008;8.390;2022-12-07T11:38:18;7.30;99.90
27128;DHT22;14660;49.008;8.390;2022-12-07T11:40:49;7.30;99.90
27128;DHT22;14660;49.008;8.390;2022-12-07T11:43:23;7.40;99.90
27128;DHT22;14660;49.008;8.390;2022-12-07T11:48:37;7.50;99.90
27128;DHT22;14660;49.008;8.390;2022-12-07T11:51:07;7.50;99.90
27128;DHT22;14660;49.008;8.390;2022-12-07T11:53:57;7.50;99.90
27128;DHT22;14660;49.008;8.390;2022-12-07T11:56:27;7.40;99.90
27128;DHT22;14660;49.008;8.390;2022-12-07T12:01:56;7.40;99.90
27128;DHT22;14660;49.008;8.390;2022-12-07T12:07:24;7.40;99.90
27128;DHT22;14660;49.008;8.390;2022-12-07T12:10:18;7.40;99.90
27128;DHT22;14660;49.008;8.390;2022-12-07T12:13:16;7.40;99.90
27128;DHT22;14660;49.008;8.390;2022-12-07T12:16:19;7.40;99.90
27128;DHT22;14660;49.008;8.390;2022-12-07T12:21:43;7.50;99.90
27128;DHT22;14660;49.008;8.390;2022-12-07T12:24:18;7.60;99.90
27128;DHT22;14660;49.008;8.390;2022-12-07T12:26:57;7.60;99.90
27128;DHT22;14660;49.008;8.390;2022-12-07T12:29:44;7.70;99.90
27128;DHT22;14660;49.008;8.390;2022-12-07T12:32:28;7.70;99.90
27128;DHT22;14660;49.008;8.390;2022-12-07T12:38:34;7.60;99.90
27128;DHT22;14660;49.008;8.390;2022-12-07T12:48:00;7.70;99.90
27128;DHT22;14660;49.008;8.390;2022-12-07T12:50:44;7.70;99.90
27128;DHT22;14660;49.008;8.390;2022-12-07T12:53:29;7.80;99.90
27128;DHT22;14660;49.008;8.390;2022-12-07T13:07:57;7.80;99.90
27128;DHT22;14660;49.008;8.390;2022-12-07T13:10:45;7.80;99.90
27128;DHT22;14660;49.008;8.390;2022-12-07T13:13:31;7.80;99.90
27128;DHT22;14660;49.008;8.390;2022-12-07T13:18:42;7.80;99.90
27128;DHT22;14660;49.008;8.390;2022-12-07T13:24:13;7.80;99.90
27128;DHT22;14660;49.008;8.390;2022-12-07T13:26:43;7.70;99.90
27128;DHT22;14660;49.008;8.390;2022-12-07T13:29:29;7.80;99.90
27128;DHT22;14660;49.008;8.390;2022-12-07T13:32:03;7.70;99.90
27128;DHT22;14660;49.008;8.390;2022-12-07T13:34:35;7.60;99.90
27128;DHT22;14660;49.008;8.390;2022-12-07T13:37:14;7.60;99.90
27128;DHT22;14660;49.008;8.390;2022-12-07T13:40:00;7.50;99.90
27128;DHT22;14660;49.008;8.390;2022-12-07T13:42:34;7.60;99.90
27128;DHT22;14660;49.008;8.390;2022-12-07T13:45:20;7.50;99.90
27128;DHT22;14660;49.008;8.390;2022-12-07T13:47:53;7.50;99.90
27128;DHT22;14660;49.008;8.390;2022-12-07T13:50:29;7.50;99.90
27128;DHT22;14660;49.008;8.390;2022-12-07T13:53:11;7.50;99.90
27128;DHT22;14660;49.008;8.390;2022-12-07T13:55:44;7.60;99.90
27128;DHT22;14660;49.008;8.390;2022-12-07T13:58:12;7.60;99.90
27128;DHT22;14660;49.008;8.390;2022-12-07T14:00:40;7.60;99.90
27128;DHT22;14660;49.008;8.390;2022-12-07T14:05:40;7.60;99.90
27128;DHT22;14660;49.008;8.390;2022-12-07T14:08:29;7.60;99.90
27128;DHT22;14660;49.008;8.390;2022-12-07T14:10:57;7.70;99.90
27128;DHT22;14660;49.008;8.390;2022-12-07T14:13:42;7.60;99.90
27128;DHT22;14660;49.008;8.390;2022-12-07T14:16:35;7.50;99.90
27128;DHT22;14660;49.008;8.390;2022-12-07T14:19:04;7.50;99.90
27128;DHT22;14660;49.008;8.390;2022-12-07T14:21:33;7.50;99.90
27128;DHT22;14660;49.008;8.390;2022-12-07T14:24:19;7.50;99.90
27128;DHT22;14660;49.008;8.390;2022-12-07T14:26:48;7.50;99.90
27128;DHT22;14660;49.008;8.390;2022-12-07T14:29:41;7.50;99.90
27128;DHT22;14660;49.008;8.390;2022-12-07T14:32:35;7.50;99.90
27128;DHT22;14660;49.008;8.390;2022-12-07T14:37:48;7.50;99.90
27128;DHT22;14660;49.008;8.390;2022-12-07T14:40:21;7.50;99.90
27128;DHT22;14660;49.008;8.390;2022-12-07T14:42:51;7.50;99.90
27128;DHT22;14660;49.008;8.390;2022-12-07T14:45:21;7.40;99.90
27128;DHT22;14660;49.008;8.390;2022-12-07T14:47:49;7.40;99.90
27128;DHT22;14660;49.008;8.390;2022-12-07T14:50:18;7.40;99.90
27128;DHT22;14660;49.008;8.390;2022-12-07T14:52:50;7.40;99.90
27128;DHT22;14660;49.008;8.390;2022-12-07T14:55:29;7.50;99.90
27128;DHT22;14660;49.008;8.390;2022-12-07T14:57:57;7.50;99.90
27128;DHT22;14660;49.008;8.390;2022-12-07T15:00:27;7.50;99.90
27128;DHT22;14660;49.008;8.390;2022-12-07T15:02:55;7.50;99.90
27128;DHT22;14660;49.008;8.390;2022-12-07T15:05:23;7.50;99.90
27128;DHT22;14660;49.008;8.390;2022-12-07T15:07:50;7.40;99.90
27128;DHT22;14660;49.008;8.390;2022-12-07T15:10:36;7.30;99.90
27128;DHT22;14660;49.008;8.390;2022-12-07T15:13:06;7.30;99.90
27128;DHT22;14660;49.008;8.390;2022-12-07T15:15:52;7.30;99.90
27128;DHT22;14660;49.008;8.390;2022-12-07T15:18:20;7.30;99.90
27128;DHT22;14660;49.008;8.390;2022-12-07T15:20:49;7.30;99.90
27128;DHT22;14660;49.008;8.390;2022-12-07T15:23:16;7.40;99.90
27128;DHT22;14660;49.008;8.390;2022-12-07T15:25:44;7.30;99.90
27128;DHT22;14660;49.008;8.390;2022-12-07T15:28:12;7.30;99.90
27128;DHT22;14660;49.008;8.390;2022-12-07T15:30:41;7.30;99.90
27128;DHT22;14660;49.008;8.390;2022-12-07T15:33:10;7.30;99.90
27128;DHT22;14660;49.008;8.390;2022-12-07T15:35:42;7.20;99.90
27128;DHT22;14660;49.008;8.390;2022-12-07T15:38:09;7.20;99.90
27128;DHT22;14660;49.008;8.390;2022-12-07T15:40:37;7.20;99.90
27128;DHT22;14660;49.008;8.390;2022-12-07T15:43:04;7.10;99.90
27128;DHT22;14660;49.008;8.390;2022-12-07T15:45:32;7.10;99.90
27128;DHT22;14660;49.008;8.390;2022-12-07T15:47:59;7.20;99.90
27128;DHT22;14660;49.008;8.390;2022-12-07T15:50:26;7.20;99.90
27128;DHT22;14660;49.008;8.390;2022-12-07T15:52:52;7.20;99.90
27128;DHT22;14660;49.008;8.390;2022-12-07T15:55:19;7.20;99.90
27128;DHT22;14660;49.008;8.390;2022-12-07T15:57:46;7.10;99.90
27128;DHT22;14660;49.008;8.390;2022-12-07T16:00:12;7.10;99.90
27128;DHT22;14660;49.008;8.390;2022-12-07T16:02:39;7.10;99.90
27128;DHT22;14660;49.008;8.390;2022-12-07T16:05:06;7.00;99.90
27128;DHT22;14660;49.008;8.390;2022-12-07T16:07:33;7.00;99.90
27128;DHT22;14660;49.008;8.390;2022-12-07T16:09:59;7.00;99.90
27128;DHT22;14660;49.008;8.390;2022-12-07T16:12:26;7.10;99.90
27128;DHT22;14660;49.008;8.390;2022-12-07T16:14:54;7.00;99.90
27128;DHT22;14660;49.008;8.390;2022-12-07T16:17:20;7.10;99.90
27128;DHT22;14660;49.008;8.390;2022-12-07T16:19:47;7.00;99.90
27128;DHT22;14660;49.008;8.390;2022-12-07T16:22:14;7.00;99.90
27128;DHT22;14660;49.008;8.390;2022-12-07T16:24:41;6.90;99.90
27128;DHT22;14660;49.008;8.390;2022-12-07T16:27:08;6.90;99.90
27128;DHT22;14660;49.008;8.390;2022-12-07T16:29:33;6.90;99.90
27128;DHT22;14660;49.008;8.390;2022-12-07T16:32:00;6.80;99.90
27128;DHT22;14660;49.008;8.390;2022-12-07T16:34:26;6.90;99.90
27128;DHT22;14660;49.008;8.390;2022-12-07T16:36:53;6.90;99.90
27128;DHT22;14660;49.008;8.390;2022-12-07T16:39:18;6.80;99.90
27128;DHT22;14660;49.008;8.390;2022-12-07T16:41:45;6.80;99.90
27128;DHT22;14660;49.008;8.390;2022-12-07T16:44:15;6.80;99.90
27128;DHT22;14660;49.008;8.390;2022-12-07T16:46:45;6.70;99.90
27128;DHT22;14660;49.008;8.390;2022-12-07T16:49:13;6.70;99.90
27128;DHT22;14660;49.008;8.390;2022-12-07T16:51:40;6.80;99.90
27128;DHT22;14660;49.008;8.390;2022-12-07T16:54:10;6.90;99.90
27128;DHT22;14660;49.008;8.390;2022-12-07T16:56:37;6.80;99.90
27128;DHT22;14660;49.008;8.390;2022-12-07T16:59:04;6.80;99.90
27128;DHT22;14660;49.008;8.390;2022-12-07T17:01:32;6.80;99.90
27128;DHT22;14660;49.008;8.390;2022-12-07T17:04:01;6.80;99.90
27128;DHT22;14660;49.008;8.390;2022-12-07T17:06:29;6.80;99.90
27128;DHT22;14660;49.008;8.390;2022-12-07T17:08:57;6.90;99.90
27128;DHT22;14660;49.008;8.390;2022-12-07T17:11:27;6.80;99.90
27128;DHT22;14660;49.008;8.390;2022-12-07T17:13:55;6.90;99.90
27128;DHT22;14660;49.008;8.390;2022-12-07T17:16:41;6.80;99.90
27128;DHT22;14660;49.008;8.390;2022-12-07T17:19:08;6.80;99.90
27128;DHT22;14660;49.008;8.390;2022-12-07T17:21:36;6.70;99.90
27128;DHT22;14660;49.008;8.390;2022-12-07T17:24:05;6.80;99.90
27128;DHT22;14660;49.008;8.390;2022-12-07T17:26:32;6.70;99.90
27128;DHT22;14660;49.008;8.390;2022-12-07T17:28:59;6.80;99.90
27128;DHT22;14660;49.008;8.390;2022-12-07T17:31:26;6.80;99.90
27128;DHT22;14660;49.008;8.390;2022-12-07T17:33:53;6.80;99.90
27128;DHT22;14660;49.008;8.390;2022-12-07T17:36:30;6.80;99.90
27128;DHT22;14660;49.008;8.390;2022-12-07T17:38:58;6.80;99.90
27128;DHT22;14660;49.008;8.390;2022-12-07T17:41:27;6.80;99.90
27128;DHT22;14660;49.008;8.390;2022-12-07T17:44:15;6.70;99.90
27128;DHT22;14660;49.008;8.390;2022-12-07T17:46:42;6.70;99.90
27128;DHT22;14660;49.008;8.390;2022-12-07T17:49:08;6.70;99.90
27128;DHT22;14660;49.008;8.390;2022-12-07T17:51:35;6.70;99.90
27128;DHT22;14660;49.008;8.390;2022-12-07T17:54:19;6.80;99.90
27128;DHT22;14660;49.008;8.390;2022-12-07T17:56:47;6.80;99.90
27128;DHT22;14660;49.008;8.390;2022-12-07T17:59:14;6.80;99.90
27128;DHT22;14660;49.008;8.390;2022-12-07T18:01:41;6.80;99.90
27128;DHT22;14660;49.008;8.390;2022-12-07T18:04:08;6.80;99.90
27128;DHT22;14660;49.008;8.390;2022-12-07T18:06:36;6.80;99.90
27128;DHT22;14660;49.008;8.390;2022-12-07T18:09:05;6.80;99.90